sensor_id;sensor_type;location;lat;lon;timestamp;temperature;humidity
79301;SHT31;68755;51.984;5.646;2023-12-07T00:01:45;2.4;75.5
79301;SHT31;68755;51.984;5.646;2023-12-07T00:04:15;2.3;75.6
79301;SHT31;68755;51.984;5.646;2023-12-07T00:06:44;2.4;75.9
79301;SHT31;68755;51.984;5.646;2023-12-07T00:09:14;2.4;75.8
79301;SHT31;68755;51.984;5.646;2023-12-07T00:11:44;2.5;75.4
79301;SHT31;68755;51.984;5.646;2023-12-07T00:14:13;2.5;74.9
79301;SHT31;68755;51.984;5.646;2023-12-07T00:16:43;2.5;75.2
79301;SHT31;68755;51.984;5.646;2023-12-07T00:19:12;2.6;75.1
79301;SHT31;68755;51.984;5.646;2023-12-07T00:21:42;2.6;74.7
79301;SHT31;68755;51.984;5.646;2023-12-07T00:24:14;2.6;74.7
79301;SHT31;68755;51.984;5.646;2023-12-07T00:26:44;2.5;74.6
79301;SHT31;68755;51.984;5.646;2023-12-07T00:29:13;2.5;74.5
79301;SHT31;68755;51.984;5.646;2023-12-07T00:31:43;2.5;74.5
79301;SHT31;68755;51.984;5.646;2023-12-07T00:34:15;2.4;74.8
79301;SHT31;68755;51.984;5.646;2023-12-07T00:36:44;2.4;75.0
79301;SHT31;68755;51.984;5.646;2023-12-07T00:39:14;2.3;75.5
79301;SHT31;68755;51.984;5.646;2023-12-07T00:41:44;2.3;75.6
79301;SHT31;68755;51.984;5.646;2023-12-07T00:44:14;2.3;75.6
79301;SHT31;68755;51.984;5.646;2023-12-07T00:46:44;2.2;75.5
79301;SHT31;68755;51.984;5.646;2023-12-07T00:49:13;2.2;75.7
79301;SHT31;68755;51.984;5.646;2023-12-07T00:51:43;2.2;76.4
79301;SHT31;68755;51.984;5.646;2023-12-07T00:54:13;2.1;76.5
79301;SHT31;68755;51.984;5.646;2023-12-07T00:56:42;2.1;76.4
79301;SHT31;68755;51.984;5.646;2023-12-07T00:59:12;2.1;76.3
79301;SHT31;68755;51.984;5.646;2023-12-07T01:01:42;2.1;76.4
79301;SHT31;68755;51.984;5.646;2023-12-07T01:04:11;2.1;76.6
79301;SHT31;68755;51.984;5.646;2023-12-07T01:06:43;2.0;76.6
79301;SHT31;68755;51.984;5.646;2023-12-07T01:09:13;2.0;76.6
79301;SHT31;68755;51.984;5.646;2023-12-07T01:11:42;2.0;76.4
79301;SHT31;68755;51.984;5.646;2023-12-07T01:14:12;2.0;76.2
79301;SHT31;68755;51.984;5.646;2023-12-07T01:16:42;2.0;76.3
79301;SHT31;68755;51.984;5.646;2023-12-07T01:19:11;1.9;76.1
79301;SHT31;68755;51.984;5.646;2023-12-07T01:21:42;1.9;76.3
79301;SHT31;68755;51.984;5.646;2023-12-07T01:24:11;1.9;76.4
79301;SHT31;68755;51.984;5.646;2023-12-07T01:26:41;1.9;77.1
79301;SHT31;68755;51.984;5.646;2023-12-07T01:29:10;1.9;77.7
79301;SHT31;68755;51.984;5.646;2023-12-07T01:31:41;1.9;77.9
79301;SHT31;68755;51.984;5.646;2023-12-07T01:34:11;1.8;78.2
79301;SHT31;68755;51.984;5.646;2023-12-07T01:36:44;1.8;78.4
79301;SHT31;68755;51.984;5.646;2023-12-07T01:39:13;1.9;78.3
79301;SHT31;68755;51.984;5.646;2023-12-07T01:41:45;1.9;78.3
79301;SHT31;68755;51.984;5.646;2023-12-07T01:44:15;1.9;78.7
79301;SHT31;68755;51.984;5.646;2023-12-07T01:46:45;1.9;78.9
79301;SHT31;68755;51.984;5.646;2023-12-07T01:49:15;1.9;78.6
79301;SHT31;68755;51.984;5.646;2023-12-07T01:51:45;1.9;78.5
79301;SHT31;68755;51.984;5.646;2023-12-07T01:54:16;1.9;79.0
79301;SHT31;68755;51.984;5.646;2023-12-07T01:56:46;1.9;79.2
79301;SHT31;68755;51.984;5.646;2023-12-07T01:59:18;1.9;79.5
79301;SHT31;68755;51.984;5.646;2023-12-07T02:01:50;2.0;79.7
79301;SHT31;68755;51.984;5.646;2023-12-07T02:04:20;2.0;79.7
79301;SHT31;68755;51.984;5.646;2023-12-07T02:06:52;2.0;80.3
79301;SHT31;68755;51.984;5.646;2023-12-07T02:09:25;2.0;80.8
79301;SHT31;68755;51.984;5.646;2023-12-07T02:11:55;2.0;80.6
79301;SHT31;68755;51.984;5.646;2023-12-07T02:14:25;2.1;80.5
79301;SHT31;68755;51.984;5.646;2023-12-07T02:17:05;2.1;80.6
79301;SHT31;68755;51.984;5.646;2023-12-07T02:19:48;2.1;80.9
79301;SHT31;68755;51.984;5.646;2023-12-07T02:22:24;2.1;81.2
79301;SHT31;68755;51.984;5.646;2023-12-07T02:25:08;2.1;81.3
79301;SHT31;68755;51.984;5.646;2023-12-07T02:27:39;2.2;81.3
79301;SHT31;68755;51.984;5.646;2023-12-07T02:30:11;2.2;81.4
79301;SHT31;68755;51.984;5.646;2023-12-07T02:32:43;2.2;81.4
79301;SHT31;68755;51.984;5.646;2023-12-07T02:35:14;2.2;81.5
79301;SHT31;68755;51.984;5.646;2023-12-07T02:37:49;2.2;81.6
79301;SHT31;68755;51.984;5.646;2023-12-07T02:40:21;2.2;81.7
79301;SHT31;68755;51.984;5.646;2023-12-07T02:42:51;2.2;82.2
79301;SHT31;68755;51.984;5.646;2023-12-07T02:45:22;2.2;82.4
79301;SHT31;68755;51.984;5.646;2023-12-07T02:47:53;2.2;82.4
79301;SHT31;68755;51.984;5.646;2023-12-07T02:50:23;2.3;82.1
79301;SHT31;68755;51.984;5.646;2023-12-07T02:52:53;2.3;81.8
79301;SHT31;68755;51.984;5.646;2023-12-07T02:55:24;2.3;81.9
79301;SHT31;68755;51.984;5.646;2023-12-07T02:57:53;2.4;81.8
79301;SHT31;68755;51.984;5.646;2023-12-07T03:00:23;2.4;81.6
79301;SHT31;68755;51.984;5.646;2023-12-07T03:02:53;2.4;81.5
79301;SHT31;68755;51.984;5.646;2023-12-07T03:05:22;2.5;81.7
79301;SHT31;68755;51.984;5.646;2023-12-07T03:07:52;2.5;81.4
79301;SHT31;68755;51.984;5.646;2023-12-07T03:10:21;2.5;81.3
79301;SHT31;68755;51.984;5.646;2023-12-07T03:12:51;2.5;80.9
79301;SHT31;68755;51.984;5.646;2023-12-07T03:15:20;2.5;80.8
79301;SHT31;68755;51.984;5.646;2023-12-07T03:17:50;2.5;80.7
79301;SHT31;68755;51.984;5.646;2023-12-07T03:20:20;2.5;80.5
79301;SHT31;68755;51.984;5.646;2023-12-07T03:22:50;2.5;80.4
79301;SHT31;68755;51.984;5.646;2023-12-07T03:25:19;2.5;80.4
79301;SHT31;68755;51.984;5.646;2023-12-07T03:27:49;2.5;80.2
79301;SHT31;68755;51.984;5.646;2023-12-07T03:30:18;2.5;80.3
79301;SHT31;68755;51.984;5.646;2023-12-07T03:32:48;2.5;80.1
79301;SHT31;68755;51.984;5.646;2023-12-07T03:35:17;2.5;79.9
79301;SHT31;68755;51.984;5.646;2023-12-07T03:37:47;2.5;79.7
79301;SHT31;68755;51.984;5.646;2023-12-07T03:40:17;2.5;79.5
79301;SHT31;68755;51.984;5.646;2023-12-07T03:42:46;2.4;79.5
79301;SHT31;68755;51.984;5.646;2023-12-07T03:45:16;2.4;79.6
79301;SHT31;68755;51.984;5.646;2023-12-07T03:47:45;2.4;79.5
79301;SHT31;68755;51.984;5.646;2023-12-07T03:50:15;2.4;79.6
79301;SHT31;68755;51.984;5.646;2023-12-07T03:52:45;2.3;79.7
79301;SHT31;68755;51.984;5.646;2023-12-07T03:55:14;2.3;79.8
79301;SHT31;68755;51.984;5.646;2023-12-07T03:57:44;2.3;79.9
79301;SHT31;68755;51.984;5.646;2023-12-07T04:00:14;2.3;80.0
79301;SHT31;68755;51.984;5.646;2023-12-07T04:02:44;2.3;79.9
79301;SHT31;68755;51.984;5.646;2023-12-07T04:05:13;2.2;79.9
79301;SHT31;68755;51.984;5.646;2023-12-07T04:07:43;2.2;80.2
79301;SHT31;68755;51.984;5.646;2023-12-07T04:10:13;2.2;80.1
79301;SHT31;68755;51.984;5.646;2023-12-07T04:12:42;2.2;80.1
79301;SHT31;68755;51.984;5.646;2023-12-07T04:15:12;2.2;80.1
79301;SHT31;68755;51.984;5.646;2023-12-07T04:17:41;2.1;80.2
79301;SHT31;68755;51.984;5.646;2023-12-07T04:20:12;2.1;80.3
79301;SHT31;68755;51.984;5.646;2023-12-07T04:22:43;2.1;80.4
79301;SHT31;68755;51.984;5.646;2023-12-07T04:25:13;2.1;80.3
79301;SHT31;68755;51.984;5.646;2023-12-07T04:27:42;2.1;80.4
79301;SHT31;68755;51.984;5.646;2023-12-07T04:30:13;2.1;80.3
79301;SHT31;68755;51.984;5.646;2023-12-07T04:32:42;2.1;80.4
79301;SHT31;68755;51.984;5.646;2023-12-07T04:35:12;2.1;80.5
79301;SHT31;68755;51.984;5.646;2023-12-07T04:37:41;2.1;80.7
79301;SHT31;68755;51.984;5.646;2023-12-07T04:40:11;2.1;81.2
79301;SHT31;68755;51.984;5.646;2023-12-07T04:42:41;2.1;81.4
79301;SHT31;68755;51.984;5.646;2023-12-07T04:45:11;2.1;81.6
79301;SHT31;68755;51.984;5.646;2023-12-07T04:47:41;2.1;81.7
79301;SHT31;68755;51.984;5.646;2023-12-07T04:50:11;2.1;82.1
79301;SHT31;68755;51.984;5.646;2023-12-07T04:52:41;2.1;82.3
79301;SHT31;68755;51.984;5.646;2023-12-07T04:55:10;2.2;82.6
79301;SHT31;68755;51.984;5.646;2023-12-07T04:57:40;2.2;82.9
79301;SHT31;68755;51.984;5.646;2023-12-07T05:00:10;2.2;83.0
79301;SHT31;68755;51.984;5.646;2023-12-07T05:02:41;2.2;83.3
79301;SHT31;68755;51.984;5.646;2023-12-07T05:05:10;2.3;83.4
79301;SHT31;68755;51.984;5.646;2023-12-07T05:07:40;2.3;83.6
79301;SHT31;68755;51.984;5.646;2023-12-07T05:10:10;2.3;83.5
79301;SHT31;68755;51.984;5.646;2023-12-07T05:12:42;2.3;83.6
79301;SHT31;68755;51.984;5.646;2023-12-07T05:15:13;2.3;83.5
79301;SHT31;68755;51.984;5.646;2023-12-07T05:17:43;2.4;83.4
79301;SHT31;68755;51.984;5.646;2023-12-07T05:20:13;2.4;83.3
79301;SHT31;68755;51.984;5.646;2023-12-07T05:22:43;2.4;83.2
79301;SHT31;68755;51.984;5.646;2023-12-07T05:25:12;2.4;82.9
79301;SHT31;68755;51.984;5.646;2023-12-07T05:27:42;2.4;82.8
79301;SHT31;68755;51.984;5.646;2023-12-07T05:30:14;2.4;82.7
79301;SHT31;68755;51.984;5.646;2023-12-07T05:32:44;2.4;82.6
79301;SHT31;68755;51.984;5.646;2023-12-07T05:35:16;2.4;82.5
79301;SHT31;68755;51.984;5.646;2023-12-07T05:37:45;2.5;82.3
79301;SHT31;68755;51.984;5.646;2023-12-07T05:40:15;2.5;82.0
79301;SHT31;68755;51.984;5.646;2023-12-07T05:42:49;2.5;81.8
79301;SHT31;68755;51.984;5.646;2023-12-07T05:45:18;2.5;81.7
79301;SHT31;68755;51.984;5.646;2023-12-07T05:47:48;2.5;81.8
79301;SHT31;68755;51.984;5.646;2023-12-07T05:50:17;2.5;81.7
79301;SHT31;68755;51.984;5.646;2023-12-07T05:52:48;2.5;81.3
79301;SHT31;68755;51.984;5.646;2023-12-07T05:55:17;2.5;81.2
79301;SHT31;68755;51.984;5.646;2023-12-07T05:57:47;2.5;80.9
79301;SHT31;68755;51.984;5.646;2023-12-07T06:00:18;2.5;80.8
79301;SHT31;68755;51.984;5.646;2023-12-07T06:02:47;2.5;80.9
79301;SHT31;68755;51.984;5.646;2023-12-07T06:05:17;2.4;80.6
79301;SHT31;68755;51.984;5.646;2023-12-07T06:07:46;2.4;80.3
79301;SHT31;68755;51.984;5.646;2023-12-07T06:10:16;2.4;80.2
79301;SHT31;68755;51.984;5.646;2023-12-07T06:12:46;2.4;80.3
79301;SHT31;68755;51.984;5.646;2023-12-07T06:15:15;2.4;80.3
79301;SHT31;68755;51.984;5.646;2023-12-07T06:17:45;2.4;80.4
79301;SHT31;68755;51.984;5.646;2023-12-07T06:20:15;2.4;80.8
79301;SHT31;68755;51.984;5.646;2023-12-07T06:22:44;2.4;81.1
79301;SHT31;68755;51.984;5.646;2023-12-07T06:25:14;2.5;80.9
79301;SHT31;68755;51.984;5.646;2023-12-07T06:27:43;2.7;80.5
79301;SHT31;68755;51.984;5.646;2023-12-07T06:30:14;2.7;79.5
79301;SHT31;68755;51.984;5.646;2023-12-07T06:32:43;2.8;79.1
79301;SHT31;68755;51.984;5.646;2023-12-07T06:35:13;2.8;78.7
79301;SHT31;68755;51.984;5.646;2023-12-07T06:37:43;2.8;78.4
79301;SHT31;68755;51.984;5.646;2023-12-07T06:40:13;2.8;77.8
79301;SHT31;68755;51.984;5.646;2023-12-07T06:42:42;2.8;78.0
79301;SHT31;68755;51.984;5.646;2023-12-07T06:45:12;2.8;78.0
79301;SHT31;68755;51.984;5.646;2023-12-07T06:47:42;2.8;77.7
79301;SHT31;68755;51.984;5.646;2023-12-07T06:50:11;2.7;77.9
79301;SHT31;68755;51.984;5.646;2023-12-07T06:52:42;2.7;78.2
79301;SHT31;68755;51.984;5.646;2023-12-07T06:55:12;2.7;78.2
79301;SHT31;68755;51.984;5.646;2023-12-07T06:57:43;2.7;78.5
79301;SHT31;68755;51.984;5.646;2023-12-07T07:00:13;2.7;78.6
79301;SHT31;68755;51.984;5.646;2023-12-07T07:02:42;2.7;78.2
79301;SHT31;68755;51.984;5.646;2023-12-07T07:05:13;2.7;78.0
79301;SHT31;68755;51.984;5.646;2023-12-07T07:07:42;2.7;78.0
79301;SHT31;68755;51.984;5.646;2023-12-07T07:10:12;2.6;78.0
79301;SHT31;68755;51.984;5.646;2023-12-07T07:12:42;2.6;78.2
79301;SHT31;68755;51.984;5.646;2023-12-07T07:15:11;2.6;78.4
79301;SHT31;68755;51.984;5.646;2023-12-07T07:17:41;2.6;78.7
79301;SHT31;68755;51.984;5.646;2023-12-07T07:20:11;2.5;78.7
79301;SHT31;68755;51.984;5.646;2023-12-07T07:22:41;2.5;78.8
79301;SHT31;68755;51.984;5.646;2023-12-07T07:25:11;2.5;78.6
79301;SHT31;68755;51.984;5.646;2023-12-07T07:27:42;2.5;78.7
79301;SHT31;68755;51.984;5.646;2023-12-07T07:30:12;2.5;78.7
79301;SHT31;68755;51.984;5.646;2023-12-07T07:32:42;2.5;79.0
79301;SHT31;68755;51.984;5.646;2023-12-07T07:35:14;2.4;79.1
79301;SHT31;68755;51.984;5.646;2023-12-07T07:37:46;2.4;79.2
79301;SHT31;68755;51.984;5.646;2023-12-07T07:40:16;2.4;79.4
79301;SHT31;68755;51.984;5.646;2023-12-07T07:42:45;2.4;79.6
79301;SHT31;68755;51.984;5.646;2023-12-07T07:45:15;2.4;79.6
79301;SHT31;68755;51.984;5.646;2023-12-07T07:47:45;2.4;79.8
79301;SHT31;68755;51.984;5.646;2023-12-07T07:50:15;2.4;79.7
79301;SHT31;68755;51.984;5.646;2023-12-07T07:52:47;2.4;79.6
79301;SHT31;68755;51.984;5.646;2023-12-07T07:55:16;2.4;79.7
79301;SHT31;68755;51.984;5.646;2023-12-07T07:57:46;2.4;79.7
79301;SHT31;68755;51.984;5.646;2023-12-07T08:00:16;2.4;79.7
79301;SHT31;68755;51.984;5.646;2023-12-07T08:02:47;2.4;79.8
79301;SHT31;68755;51.984;5.646;2023-12-07T08:05:17;2.4;79.7
79301;SHT31;68755;51.984;5.646;2023-12-07T08:07:47;2.4;79.5
79301;SHT31;68755;51.984;5.646;2023-12-07T08:10:17;2.4;79.4
79301;SHT31;68755;51.984;5.646;2023-12-07T08:12:47;2.4;79.2
79301;SHT31;68755;51.984;5.646;2023-12-07T08:15:16;2.4;79.2
79301;SHT31;68755;51.984;5.646;2023-12-07T08:17:46;2.4;79.0
79301;SHT31;68755;51.984;5.646;2023-12-07T08:20:16;2.4;79.1
79301;SHT31;68755;51.984;5.646;2023-12-07T08:22:46;2.3;79.1
79301;SHT31;68755;51.984;5.646;2023-12-07T08:25:15;2.3;79.3
79301;SHT31;68755;51.984;5.646;2023-12-07T08:27:45;2.3;79.7
79301;SHT31;68755;51.984;5.646;2023-12-07T08:30:15;2.3;79.7
79301;SHT31;68755;51.984;5.646;2023-12-07T08:32:46;2.3;79.7
79301;SHT31;68755;51.984;5.646;2023-12-07T08:35:17;2.3;79.7
79301;SHT31;68755;51.984;5.646;2023-12-07T08:37:47;2.3;79.7
79301;SHT31;68755;51.984;5.646;2023-12-07T08:40:17;2.3;80.1
79301;SHT31;68755;51.984;5.646;2023-12-07T08:42:47;2.3;80.1
79301;SHT31;68755;51.984;5.646;2023-12-07T08:45:17;2.3;80.0
79301;SHT31;68755;51.984;5.646;2023-12-07T08:47:46;2.3;79.6
79301;SHT31;68755;51.984;5.646;2023-12-07T08:50:16;2.3;79.6
79301;SHT31;68755;51.984;5.646;2023-12-07T08:52:47;2.3;79.6
79301;SHT31;68755;51.984;5.646;2023-12-07T08:55:19;2.3;79.8
79301;SHT31;68755;51.984;5.646;2023-12-07T08:57:48;2.3;79.9
79301;SHT31;68755;51.984;5.646;2023-12-07T09:00:18;2.3;79.9
79301;SHT31;68755;51.984;5.646;2023-12-07T09:02:51;2.3;79.8
79301;SHT31;68755;51.984;5.646;2023-12-07T09:05:23;2.3;80.0
79301;SHT31;68755;51.984;5.646;2023-12-07T09:07:53;2.3;80.1
79301;SHT31;68755;51.984;5.646;2023-12-07T09:10:23;2.3;80.1
79301;SHT31;68755;51.984;5.646;2023-12-07T09:12:53;2.4;80.0
79301;SHT31;68755;51.984;5.646;2023-12-07T09:15:23;2.4;80.3
79301;SHT31;68755;51.984;5.646;2023-12-07T09:17:52;2.4;80.3
79301;SHT31;68755;51.984;5.646;2023-12-07T09:20:22;2.4;80.3
79301;SHT31;68755;51.984;5.646;2023-12-07T09:22:52;2.4;80.3
79301;SHT31;68755;51.984;5.646;2023-12-07T09:25:24;2.4;80.6
79301;SHT31;68755;51.984;5.646;2023-12-07T09:27:55;2.4;80.6
79301;SHT31;68755;51.984;5.646;2023-12-07T09:30:26;2.4;80.3
79301;SHT31;68755;51.984;5.646;2023-12-07T09:32:56;2.4;80.3
79301;SHT31;68755;51.984;5.646;2023-12-07T09:35:26;2.5;80.3
79301;SHT31;68755;51.984;5.646;2023-12-07T09:37:55;2.5;80.3
79301;SHT31;68755;51.984;5.646;2023-12-07T09:40:27;2.5;80.4
79301;SHT31;68755;51.984;5.646;2023-12-07T09:42:57;2.5;80.4
79301;SHT31;68755;51.984;5.646;2023-12-07T09:45:27;2.5;80.4
79301;SHT31;68755;51.984;5.646;2023-12-07T09:47:56;2.5;80.6
79301;SHT31;68755;51.984;5.646;2023-12-07T09:50:27;2.5;80.6
79301;SHT31;68755;51.984;5.646;2023-12-07T09:52:58;2.5;80.5
79301;SHT31;68755;51.984;5.646;2023-12-07T09:55:28;2.5;80.4
79301;SHT31;68755;51.984;5.646;2023-12-07T09:57:58;2.5;80.4
79301;SHT31;68755;51.984;5.646;2023-12-07T10:00:28;2.5;80.7
79301;SHT31;68755;51.984;5.646;2023-12-07T10:02:59;2.5;80.9
79301;SHT31;68755;51.984;5.646;2023-12-07T10:05:31;2.5;81.0
79301;SHT31;68755;51.984;5.646;2023-12-07T10:08:01;2.6;81.1
79301;SHT31;68755;51.984;5.646;2023-12-07T10:10:31;2.6;81.2
79301;SHT31;68755;51.984;5.646;2023-12-07T10:13:00;2.6;81.4
79301;SHT31;68755;51.984;5.646;2023-12-07T10:15:31;2.6;81.5
79301;SHT31;68755;51.984;5.646;2023-12-07T10:18:00;2.6;81.1
79301;SHT31;68755;51.984;5.646;2023-12-07T10:20:30;2.6;81.2
79301;SHT31;68755;51.984;5.646;2023-12-07T10:23:03;2.6;81.1
79301;SHT31;68755;51.984;5.646;2023-12-07T10:25:36;2.6;80.9
79301;SHT31;68755;51.984;5.646;2023-12-07T10:28:07;2.7;81.0
79301;SHT31;68755;51.984;5.646;2023-12-07T10:30:40;2.7;81.2
79301;SHT31;68755;51.984;5.646;2023-12-07T10:33:11;2.7;81.5
79301;SHT31;68755;51.984;5.646;2023-12-07T10:35:42;2.7;81.8
79301;SHT31;68755;51.984;5.646;2023-12-07T10:38:14;2.7;81.8
79301;SHT31;68755;51.984;5.646;2023-12-07T10:40:46;2.7;82.1
79301;SHT31;68755;51.984;5.646;2023-12-07T10:43:21;2.7;82.3
79301;SHT31;68755;51.984;5.646;2023-12-07T10:45:52;2.8;82.2
79301;SHT31;68755;51.984;5.646;2023-12-07T10:48:24;2.8;82.2
79301;SHT31;68755;51.984;5.646;2023-12-07T10:51:02;2.8;82.5
79301;SHT31;68755;51.984;5.646;2023-12-07T10:53:37;2.8;82.5
79301;SHT31;68755;51.984;5.646;2023-12-07T10:56:10;2.9;82.6
79301;SHT31;68755;51.984;5.646;2023-12-07T10:58:41;2.9;82.9
79301;SHT31;68755;51.984;5.646;2023-12-07T11:01:13;2.9;82.7
79301;SHT31;68755;51.984;5.646;2023-12-07T11:03:44;3.0;82.7
79301;SHT31;68755;51.984;5.646;2023-12-07T11:06:15;3.0;82.7
79301;SHT31;68755;51.984;5.646;2023-12-07T11:08:51;3.0;82.8
79301;SHT31;68755;51.984;5.646;2023-12-07T11:11:28;3.0;82.9
79301;SHT31;68755;51.984;5.646;2023-12-07T11:14:03;3.1;82.9
79301;SHT31;68755;51.984;5.646;2023-12-07T11:16:36;3.1;83.0
79301;SHT31;68755;51.984;5.646;2023-12-07T11:19:29;3.1;82.9
79301;SHT31;68755;51.984;5.646;2023-12-07T11:22:06;3.2;83.0
79301;SHT31;68755;51.984;5.646;2023-12-07T11:24:36;3.2;83.1
79301;SHT31;68755;51.984;5.646;2023-12-07T11:27:08;3.2;82.9
79301;SHT31;68755;51.984;5.646;2023-12-07T11:29:37;3.3;83.0
79301;SHT31;68755;51.984;5.646;2023-12-07T11:32:07;3.3;83.1
79301;SHT31;68755;51.984;5.646;2023-12-07T11:34:39;3.3;82.9
79301;SHT31;68755;51.984;5.646;2023-12-07T11:37:11;3.3;82.9
79301;SHT31;68755;51.984;5.646;2023-12-07T11:39:41;3.4;83.2
79301;SHT31;68755;51.984;5.646;2023-12-07T11:42:15;3.4;83.2
79301;SHT31;68755;51.984;5.646;2023-12-07T11:44:48;3.5;83.4
79301;SHT31;68755;51.984;5.646;2023-12-07T11:47:20;3.5;83.3
79301;SHT31;68755;51.984;5.646;2023-12-07T11:49:50;3.5;83.4
79301;SHT31;68755;51.984;5.646;2023-12-07T11:52:20;3.6;83.1
79301;SHT31;68755;51.984;5.646;2023-12-07T11:54:50;3.6;82.8
79301;SHT31;68755;51.984;5.646;2023-12-07T11:57:20;3.6;82.5
79301;SHT31;68755;51.984;5.646;2023-12-07T11:59:50;3.6;82.6
79301;SHT31;68755;51.984;5.646;2023-12-07T12:02:19;3.7;82.4
79301;SHT31;68755;51.984;5.646;2023-12-07T12:04:51;3.7;82.2
79301;SHT31;68755;51.984;5.646;2023-12-07T12:07:21;3.7;82.3
79301;SHT31;68755;51.984;5.646;2023-12-07T12:09:53;3.7;82.3
79301;SHT31;68755;51.984;5.646;2023-12-07T12:12:23;3.7;82.4
79301;SHT31;68755;51.984;5.646;2023-12-07T12:14:53;3.7;82.5
79301;SHT31;68755;51.984;5.646;2023-12-07T12:17:23;3.8;82.5
79301;SHT31;68755;51.984;5.646;2023-12-07T12:19:52;3.8;82.6
79301;SHT31;68755;51.984;5.646;2023-12-07T12:22:24;3.8;82.6
79301;SHT31;68755;51.984;5.646;2023-12-07T12:24:54;3.8;82.9
79301;SHT31;68755;51.984;5.646;2023-12-07T12:27:24;3.9;82.1
79301;SHT31;68755;51.984;5.646;2023-12-07T12:29:54;3.9;81.5
79301;SHT31;68755;51.984;5.646;2023-12-07T12:32:24;4.0;81.8
79301;SHT31;68755;51.984;5.646;2023-12-07T12:34:54;4.0;81.9
79301;SHT31;68755;51.984;5.646;2023-12-07T12:37:24;4.0;81.9
79301;SHT31;68755;51.984;5.646;2023-12-07T12:39:54;4.0;82.0
79301;SHT31;68755;51.984;5.646;2023-12-07T12:42:24;4.0;82.1
79301;SHT31;68755;51.984;5.646;2023-12-07T12:44:55;4.0;82.1
79301;SHT31;68755;51.984;5.646;2023-12-07T12:47:26;4.1;81.8
79301;SHT31;68755;51.984;5.646;2023-12-07T12:49:58;4.1;81.9
79301;SHT31;68755;51.984;5.646;2023-12-07T12:52:28;4.1;82.1
79301;SHT31;68755;51.984;5.646;2023-12-07T12:54:58;4.1;82.2
79301;SHT31;68755;51.984;5.646;2023-12-07T12:57:29;4.1;82.4
79301;SHT31;68755;51.984;5.646;2023-12-07T13:00:00;4.1;82.4
79301;SHT31;68755;51.984;5.646;2023-12-07T13:02:30;4.2;83.0
79301;SHT31;68755;51.984;5.646;2023-12-07T13:05:00;4.2;82.8
79301;SHT31;68755;51.984;5.646;2023-12-07T13:07:30;4.3;82.4
79301;SHT31;68755;51.984;5.646;2023-12-07T13:10:00;4.3;82.0
79301;SHT31;68755;51.984;5.646;2023-12-07T13:12:31;4.3;81.8
79301;SHT31;68755;51.984;5.646;2023-12-07T13:15:04;4.4;81.1
79301;SHT31;68755;51.984;5.646;2023-12-07T13:17:34;4.5;80.8
79301;SHT31;68755;51.984;5.646;2023-12-07T13:20:04;4.5;80.6
79301;SHT31;68755;51.984;5.646;2023-12-07T13:22:38;4.6;80.2
79301;SHT31;68755;51.984;5.646;2023-12-07T13:25:08;4.6;79.8
79301;SHT31;68755;51.984;5.646;2023-12-07T13:27:39;4.6;79.7
79301;SHT31;68755;51.984;5.646;2023-12-07T13:30:11;4.6;79.5
79301;SHT31;68755;51.984;5.646;2023-12-07T13:32:41;4.6;78.9
79301;SHT31;68755;51.984;5.646;2023-12-07T13:35:10;4.6;79.0
79301;SHT31;68755;51.984;5.646;2023-12-07T13:37:40;4.6;78.8
79301;SHT31;68755;51.984;5.646;2023-12-07T13:40:10;4.6;79.0
79301;SHT31;68755;51.984;5.646;2023-12-07T13:42:41;4.6;78.9
79301;SHT31;68755;51.984;5.646;2023-12-07T13:45:11;4.6;79.1
79301;SHT31;68755;51.984;5.646;2023-12-07T13:47:41;4.6;79.4
79301;SHT31;68755;51.984;5.646;2023-12-07T13:50:12;4.6;79.7
79301;SHT31;68755;51.984;5.646;2023-12-07T13:52:43;4.7;79.2
79301;SHT31;68755;51.984;5.646;2023-12-07T13:55:13;4.7;78.6
79301;SHT31;68755;51.984;5.646;2023-12-07T13:57:44;4.7;77.8
79301;SHT31;68755;51.984;5.646;2023-12-07T14:00:15;4.7;77.2
79301;SHT31;68755;51.984;5.646;2023-12-07T14:02:44;4.7;77.2
79301;SHT31;68755;51.984;5.646;2023-12-07T14:05:14;4.7;77.0
79301;SHT31;68755;51.984;5.646;2023-12-07T14:07:45;4.6;76.8
79301;SHT31;68755;51.984;5.646;2023-12-07T14:10:15;4.6;77.0
79301;SHT31;68755;51.984;5.646;2023-12-07T14:12:44;4.5;77.2
79301;SHT31;68755;51.984;5.646;2023-12-07T14:15:16;4.5;77.4
79301;SHT31;68755;51.984;5.646;2023-12-07T14:17:46;4.4;77.6
79301;SHT31;68755;51.984;5.646;2023-12-07T14:20:16;4.4;77.8
79301;SHT31;68755;51.984;5.646;2023-12-07T14:22:45;4.4;77.8
79301;SHT31;68755;51.984;5.646;2023-12-07T14:25:16;4.3;77.9
79301;SHT31;68755;51.984;5.646;2023-12-07T14:27:47;4.2;78.0
79301;SHT31;68755;51.984;5.646;2023-12-07T14:30:16;4.2;78.3
79301;SHT31;68755;51.984;5.646;2023-12-07T14:32:46;4.1;78.4
79301;SHT31;68755;51.984;5.646;2023-12-07T14:35:19;4.0;78.7
79301;SHT31;68755;51.984;5.646;2023-12-07T14:37:49;4.0;79.0
79301;SHT31;68755;51.984;5.646;2023-12-07T14:40:21;3.9;79.3
79301;SHT31;68755;51.984;5.646;2023-12-07T14:42:50;3.9;79.6
79301;SHT31;68755;51.984;5.646;2023-12-07T14:45:21;3.8;79.9
79301;SHT31;68755;51.984;5.646;2023-12-07T14:47:52;3.8;80.0
79301;SHT31;68755;51.984;5.646;2023-12-07T14:50:22;3.7;80.2
79301;SHT31;68755;51.984;5.646;2023-12-07T14:52:51;3.7;80.3
79301;SHT31;68755;51.984;5.646;2023-12-07T14:55:21;3.7;80.4
79301;SHT31;68755;51.984;5.646;2023-12-07T14:57:50;3.7;80.6
79301;SHT31;68755;51.984;5.646;2023-12-07T15:00:22;3.6;80.8
79301;SHT31;68755;51.984;5.646;2023-12-07T15:02:53;3.6;81.1
79301;SHT31;68755;51.984;5.646;2023-12-07T15:05:23;3.6;81.2
79301;SHT31;68755;51.984;5.646;2023-12-07T15:07:53;3.6;81.4
79301;SHT31;68755;51.984;5.646;2023-12-07T15:10:23;3.6;81.6
79301;SHT31;68755;51.984;5.646;2023-12-07T15:12:53;3.6;81.7
79301;SHT31;68755;51.984;5.646;2023-12-07T15:15:22;3.6;81.9
79301;SHT31;68755;51.984;5.646;2023-12-07T15:17:52;3.6;81.9
79301;SHT31;68755;51.984;5.646;2023-12-07T15:20:22;3.6;82.0
79301;SHT31;68755;51.984;5.646;2023-12-07T15:22:51;3.6;82.1
79301;SHT31;68755;51.984;5.646;2023-12-07T15:25:21;3.5;82.3
79301;SHT31;68755;51.984;5.646;2023-12-07T15:27:50;3.5;82.5
79301;SHT31;68755;51.984;5.646;2023-12-07T15:30:20;3.5;82.6
79301;SHT31;68755;51.984;5.646;2023-12-07T15:32:50;3.5;82.8
79301;SHT31;68755;51.984;5.646;2023-12-07T15:35:22;3.5;82.9
79301;SHT31;68755;51.984;5.646;2023-12-07T15:37:51;3.5;82.9
79301;SHT31;68755;51.984;5.646;2023-12-07T15:40:21;3.5;83.1
79301;SHT31;68755;51.984;5.646;2023-12-07T15:42:50;3.5;83.3
79301;SHT31;68755;51.984;5.646;2023-12-07T15:45:21;3.5;83.3
79301;SHT31;68755;51.984;5.646;2023-12-07T15:47:51;3.5;83.2
79301;SHT31;68755;51.984;5.646;2023-12-07T15:50:21;3.5;83.2
79301;SHT31;68755;51.984;5.646;2023-12-07T15:52:50;3.5;83.3
79301;SHT31;68755;51.984;5.646;2023-12-07T15:55:20;3.5;83.3
79301;SHT31;68755;51.984;5.646;2023-12-07T15:57:50;3.5;83.4
79301;SHT31;68755;51.984;5.646;2023-12-07T16:00:22;3.5;83.5
79301;SHT31;68755;51.984;5.646;2023-12-07T16:02:52;3.4;83.6
79301;SHT31;68755;51.984;5.646;2023-12-07T16:05:22;3.4;83.6
79301;SHT31;68755;51.984;5.646;2023-12-07T16:07:52;3.4;83.6
79301;SHT31;68755;51.984;5.646;2023-12-07T16:10:21;3.4;83.6
79301;SHT31;68755;51.984;5.646;2023-12-07T16:12:53;3.4;83.4
79301;SHT31;68755;51.984;5.646;2023-12-07T16:15:23;3.4;83.3
79301;SHT31;68755;51.984;5.646;2023-12-07T16:17:52;3.4;83.0
79301;SHT31;68755;51.984;5.646;2023-12-07T16:20:22;3.4;83.0
79301;SHT31;68755;51.984;5.646;2023-12-07T16:22:52;3.4;82.9
79301;SHT31;68755;51.984;5.646;2023-12-07T16:25:21;3.4;82.9
79301;SHT31;68755;51.984;5.646;2023-12-07T16:27:51;3.4;82.9
79301;SHT31;68755;51.984;5.646;2023-12-07T16:30:21;3.4;82.8
79301;SHT31;68755;51.984;5.646;2023-12-07T16:32:50;3.4;82.7
79301;SHT31;68755;51.984;5.646;2023-12-07T16:35:20;3.4;82.5
79301;SHT31;68755;51.984;5.646;2023-12-07T16:37:49;3.4;82.3